sensor_id;sensor_type;location;lat;lon;timestamp;pressure;altitude;pressure_sealevel;temperature;humidity
70370;BME280;57790;51.356;-2.906;2023-05-10T00:00:08;101412.34;;;13.68;100.00
70370;BME280;57790;51.356;-2.906;2023-05-10T00:03:09;101411.84;;;13.64;100.00
70370;BME280;57790;51.356;-2.906;2023-05-10T00:06:09;101415.53;;;13.63;100.00
70370;BME280;57790;51.356;-2.906;2023-05-10T00:09:10;101414.69;;;13.63;100.00
70370;BME280;57790;51.356;-2.906;2023-05-10T00:12:10;101414.03;;;13.61;100.00
70370;BME280;57790;51.356;-2.906;2023-05-10T00:15:11;101418.00;;;13.57;100.00
70370;BME280;57790;51.356;-2.906;2023-05-10T00:18:11;101417.81;;;13.58;100.00
70370;BME280;57790;51.356;-2.906;2023-05-10T00:21:11;101409.00;;;13.58;100.00
70370;BME280;57790;51.356;-2.906;2023-05-10T00:24:12;101400.84;;;13.59;100.00
70370;BME280;57790;51.356;-2.906;2023-05-10T00:27:12;101409.16;;;13.56;100.00
70370;BME280;57790;51.356;-2.906;2023-05-10T00:30:13;101409.34;;;13.55;100.00
70370;BME280;57790;51.356;-2.906;2023-05-10T00:33:13;101403.34;;;13.53;100.00
70370;BME280;57790;51.356;-2.906;2023-05-10T00:36:13;101405.00;;;13.54;100.00
70370;BME280;57790;51.356;-2.906;2023-05-10T00:39:14;101402.50;;;13.52;100.00
70370;BME280;57790;51.356;-2.906;2023-05-10T00:42:14;101400.03;;;13.51;100.00
70370;BME280;57790;51.356;-2.906;2023-05-10T00:45:15;101399.53;;;13.47;100.00
70370;BME280;57790;51.356;-2.906;2023-05-10T00:48:16;101399.53;;;13.47;100.00
70370;BME280;57790;51.356;-2.906;2023-05-10T00:51:16;101402.34;;;13.46;100.00
70370;BME280;57790;51.356;-2.906;2023-05-10T00:54:17;101398.84;;;13.45;100.00
70370;BME280;57790;51.356;-2.906;2023-05-10T00:57:18;101405.16;;;13.44;100.00
70370;BME280;57790;51.356;-2.906;2023-05-10T01:00:18;101404.31;;;13.44;100.00
70370;BME280;57790;51.356;-2.906;2023-05-10T01:03:19;101408.16;;;13.41;100.00
70370;BME280;57790;51.356;-2.906;2023-05-10T01:06:19;101403.66;;;13.42;100.00
70370;BME280;57790;51.356;-2.906;2023-05-10T01:09:24;101400.34;;;13.39;100.00
70370;BME280;57790;51.356;-2.906;2023-05-10T01:12:26;101404.00;;;13.38;100.00
70370;BME280;57790;51.356;-2.906;2023-05-10T01:15:27;101399.66;;;13.37;100.00
70370;BME280;57790;51.356;-2.906;2023-05-10T01:18:29;101406.81;;;13.37;100.00
70370;BME280;57790;51.356;-2.906;2023-05-10T01:21:55;101398.19;;;13.35;100.00
70370;BME280;57790;51.356;-2.906;2023-05-10T01:35:10;101390.66;;;13.30;100.00
70370;BME280;57790;51.356;-2.906;2023-05-10T01:42:10;101404.31;;;13.27;100.00
70370;BME280;57790;51.356;-2.906;2023-05-10T01:45:27;101402.47;;;13.28;100.00
70370;BME280;57790;51.356;-2.906;2023-05-10T01:48:30;101403.47;;;13.27;100.00
70370;BME280;57790;51.356;-2.906;2023-05-10T01:51:41;101403.31;;;13.28;100.00
70370;BME280;57790;51.356;-2.906;2023-05-10T01:54:50;101404.31;;;13.27;100.00
70370;BME280;57790;51.356;-2.906;2023-05-10T01:58:01;101403.31;;;13.28;100.00
70370;BME280;57790;51.356;-2.906;2023-05-10T02:01:04;101404.63;;;13.24;100.00
70370;BME280;57790;51.356;-2.906;2023-05-10T02:04:09;101399.31;;;13.24;100.00
70370;BME280;57790;51.356;-2.906;2023-05-10T02:07:11;101402.63;;;13.26;100.00
70370;BME280;57790;51.356;-2.906;2023-05-10T02:10:13;101406.31;;;13.25;100.00
70370;BME280;57790;51.356;-2.906;2023-05-10T02:13:16;101411.78;;;13.24;100.00
70370;BME280;57790;51.356;-2.906;2023-05-10T02:16:18;101403.81;;;13.24;100.00
70370;BME280;57790;51.356;-2.906;2023-05-10T02:19:22;101406.63;;;13.22;100.00
70370;BME280;57790;51.356;-2.906;2023-05-10T02:22:24;101400.47;;;13.22;100.00
70370;BME280;57790;51.356;-2.906;2023-05-10T02:25:27;101395.16;;;13.22;100.00
70370;BME280;57790;51.356;-2.906;2023-05-10T02:28:29;101395.31;;;13.20;100.00
70370;BME280;57790;51.356;-2.906;2023-05-10T02:31:33;101407.78;;;13.20;100.00
70370;BME280;57790;51.356;-2.906;2023-05-10T02:34:35;101405.97;;;13.20;100.00
70370;BME280;57790;51.356;-2.906;2023-05-10T02:37:37;101411.59;;;13.17;100.00
70370;BME280;57790;51.356;-2.906;2023-05-10T02:40:40;101417.63;;;13.19;100.00
70370;BME280;57790;51.356;-2.906;2023-05-10T02:43:41;101417.63;;;13.19;100.00
70370;BME280;57790;51.356;-2.906;2023-05-10T02:46:43;101430.94;;;13.19;100.00
70370;BME280;57790;51.356;-2.906;2023-05-10T02:49:43;101431.19;;;13.16;100.00
70370;BME280;57790;51.356;-2.906;2023-05-10T02:52:47;101433.03;;;13.16;100.00
70370;BME280;57790;51.356;-2.906;2023-05-10T02:55:51;101433.34;;;13.13;100.00
70370;BME280;57790;51.356;-2.906;2023-05-10T02:58:52;101433.19;;;13.14;100.00
70370;BME280;57790;51.356;-2.906;2023-05-10T03:01:53;101433.34;;;13.13;100.00
70370;BME280;57790;51.356;-2.906;2023-05-10T03:04:54;101438.00;;;13.10;100.00
70370;BME280;57790;51.356;-2.906;2023-05-10T03:07:54;101433.69;;;13.09;100.00
70370;BME280;57790;51.356;-2.906;2023-05-10T03:14:31;101440.69;;;13.10;100.00
70370;BME280;57790;51.356;-2.906;2023-05-10T03:17:42;101432.84;;;13.09;100.00
70370;BME280;57790;51.356;-2.906;2023-05-10T03:20:50;101431.19;;;13.08;100.00
70370;BME280;57790;51.356;-2.906;2023-05-10T03:24:15;101433.69;;;13.09;100.00
70370;BME280;57790;51.356;-2.906;2023-05-10T03:27:16;101424.88;;;13.09;100.00
70370;BME280;57790;51.356;-2.906;2023-05-10T03:30:18;101422.22;;;13.09;100.00
70370;BME280;57790;51.356;-2.906;2023-05-10T03:33:19;101424.88;;;13.09;100.00
70370;BME280;57790;51.356;-2.906;2023-05-10T03:36:20;101435.53;;;13.09;100.00
70370;BME280;57790;51.356;-2.906;2023-05-10T03:39:21;101423.22;;;13.08;100.00
70370;BME280;57790;51.356;-2.906;2023-05-10T03:42:21;101424.88;;;13.09;100.00
70370;BME280;57790;51.356;-2.906;2023-05-10T03:45:21;101430.03;;;13.10;100.00
70370;BME280;57790;51.356;-2.906;2023-05-10T03:48:22;101427.38;;;13.10;100.00
70370;BME280;57790;51.356;-2.906;2023-05-10T03:51:22;101436.19;;;13.11;100.00
70370;BME280;57790;51.356;-2.906;2023-05-10T03:54:23;101440.69;;;13.10;100.00
70370;BME280;57790;51.356;-2.906;2023-05-10T03:57:23;101439.19;;;13.08;100.00
70370;BME280;57790;51.356;-2.906;2023-05-10T04:00:24;101434.53;;;13.10;100.00
70370;BME280;57790;51.356;-2.906;2023-05-10T04:03:24;101448.81;;;13.09;100.00
70370;BME280;57790;51.356;-2.906;2023-05-10T04:06:26;101440.19;;;13.07;100.00
70370;BME280;57790;51.356;-2.906;2023-05-10T04:09:26;101451.50;;;13.09;100.00
70370;BME280;57790;51.356;-2.906;2023-05-10T04:12:27;101450.50;;;13.10;100.00
70370;BME280;57790;51.356;-2.906;2023-05-10T04:15:27;101448.81;;;13.09;100.00
70370;BME280;57790;51.356;-2.906;2023-05-10T04:18:28;101448.81;;;13.09;100.00
70370;BME280;57790;51.356;-2.906;2023-05-10T04:21:28;101449.16;;;13.06;100.00
70370;BME280;57790;51.356;-2.906;2023-05-10T04:24:28;101448.16;;;13.07;100.00
70370;BME280;57790;51.356;-2.906;2023-05-10T04:27:29;101443.84;;;13.06;100.00
70370;BME280;57790;51.356;-2.906;2023-05-10T04:30:30;101442.34;;;13.03;100.00
70370;BME280;57790;51.356;-2.906;2023-05-10T04:33:30;101439.50;;;13.05;100.00
70370;BME280;57790;51.356;-2.906;2023-05-10T04:36:31;101438.84;;;13.03;100.00
70370;BME280;57790;51.356;-2.906;2023-05-10T04:39:32;101441.50;;;13.03;100.00
70370;BME280;57790;51.356;-2.906;2023-05-10T04:42:33;101432.81;;;13.01;100.00
70370;BME280;57790;51.356;-2.906;2023-05-10T04:45:33;101439.13;;;13.00;100.00
70370;BME280;57790;51.356;-2.906;2023-05-10T04:48:34;101440.81;;;13.01;100.00
70370;BME280;57790;51.356;-2.906;2023-05-10T04:51:34;101442.50;;;13.02;100.00
70370;BME280;57790;51.356;-2.906;2023-05-10T04:54:34;101439.97;;;13.00;100.00
70370;BME280;57790;51.356;-2.906;2023-05-10T04:57:35;101443.47;;;13.01;100.00
70370;BME280;57790;51.356;-2.906;2023-05-10T05:00:35;101444.47;;;13.00;100.00
70370;BME280;57790;51.356;-2.906;2023-05-10T05:03:36;101450.31;;;13.03;100.00
70370;BME280;57790;51.356;-2.906;2023-05-10T05:06:37;101451.44;;;13.01;100.00
70370;BME280;57790;51.356;-2.906;2023-05-10T05:09:37;101458.47;;;13.02;100.00
70370;BME280;57790;51.356;-2.906;2023-05-10T05:12:37;101461.44;;;12.99;100.00
70370;BME280;57790;51.356;-2.906;2023-05-10T05:15:38;101458.59;;;13.00;100.00
70370;BME280;57790;51.356;-2.906;2023-05-10T05:18:38;101468.56;;;12.98;100.00
70370;BME280;57790;51.356;-2.906;2023-05-10T05:21:39;101470.41;;;12.98;100.00
70370;BME280;57790;51.356;-2.906;2023-05-10T05:24:40;101466.06;;;12.97;100.00
70370;BME280;57790;51.356;-2.906;2023-05-10T05:27:40;101473.75;;;13.00;100.00
70370;BME280;57790;51.356;-2.906;2023-05-10T05:30:41;101468.13;;;13.03;100.00
70370;BME280;57790;51.356;-2.906;2023-05-10T05:33:41;101471.63;;;13.03;100.00
70370;BME280;57790;51.356;-2.906;2023-05-10T05:36:44;101478.59;;;13.04;100.00
70370;BME280;57790;51.356;-2.906;2023-05-10T05:39:45;101468.47;;;13.08;100.00
70370;BME280;57790;51.356;-2.906;2023-05-10T05:42:45;101468.47;;;13.08;100.00
70370;BME280;57790;51.356;-2.906;2023-05-10T05:45:46;101476.28;;;13.09;100.00
70370;BME280;57790;51.356;-2.906;2023-05-10T05:48:46;101482.44;;;13.10;100.00
70370;BME280;57790;51.356;-2.906;2023-05-10T05:51:47;101476.78;;;13.13;100.00
70370;BME280;57790;51.356;-2.906;2023-05-10T05:54:49;101486.97;;;13.18;100.00
70370;BME280;57790;51.356;-2.906;2023-05-10T05:57:50;101490.34;;;13.20;100.00
70370;BME280;57790;51.356;-2.906;2023-05-10T06:00:51;101488.50;;;13.20;100.00
70370;BME280;57790;51.356;-2.906;2023-05-10T06:03:52;101487.50;;;13.21;100.00
70370;BME280;57790;51.356;-2.906;2023-05-10T06:06:52;101489.19;;;13.22;100.00
70370;BME280;57790;51.356;-2.906;2023-05-10T06:09:52;101489.84;;;13.24;100.00
70370;BME280;57790;51.356;-2.906;2023-05-10T06:12:53;101493.34;;;13.25;100.00
70370;BME280;57790;51.356;-2.906;2023-05-10T06:15:53;101496.84;;;13.25;100.00
70370;BME280;57790;51.356;-2.906;2023-05-10T06:18:55;101502.16;;;13.25;100.00
70370;BME280;57790;51.356;-2.906;2023-05-10T06:21:55;101503.66;;;13.28;100.00
70370;BME280;57790;51.356;-2.906;2023-05-10T06:24:56;101504.50;;;13.28;100.00
70370;BME280;57790;51.356;-2.906;2023-05-10T06:27:56;101508.00;;;13.29;100.00
70370;BME280;57790;51.356;-2.906;2023-05-10T06:30:58;101513.03;;;13.32;100.00
70370;BME280;57790;51.356;-2.906;2023-05-10T06:33:58;101511.19;;;13.32;100.00
70370;BME280;57790;51.356;-2.906;2023-05-10T06:36:58;101511.84;;;13.34;100.00
70370;BME280;57790;51.356;-2.906;2023-05-10T06:39:59;101515.19;;;13.36;100.00
70370;BME280;57790;51.356;-2.906;2023-05-10T06:42:59;101514.19;;;13.37;100.00
70370;BME280;57790;51.356;-2.906;2023-05-10T06:45:59;101518.53;;;13.38;100.00
70370;BME280;57790;51.356;-2.906;2023-05-10T06:49:00;101525.84;;;13.45;100.00
70370;BME280;57790;51.356;-2.906;2023-05-10T06:52:00;101528.22;;;13.48;100.00
70370;BME280;57790;51.356;-2.906;2023-05-10T06:55:01;101532.53;;;13.49;100.00
70370;BME280;57790;51.356;-2.906;2023-05-10T06:58:02;101531.22;;;13.53;100.00
70370;BME280;57790;51.356;-2.906;2023-05-10T07:01:03;101533.72;;;13.54;100.00
70370;BME280;57790;51.356;-2.906;2023-05-10T07:04:04;101534.22;;;13.58;100.00
70370;BME280;57790;51.356;-2.906;2023-05-10T07:07:04;101529.22;;;13.55;100.00
70370;BME280;57790;51.356;-2.906;2023-05-10T07:10:05;101531.25;;;13.61;100.00
70370;BME280;57790;51.356;-2.906;2023-05-10T07:13:06;101533.09;;;13.60;100.00
70370;BME280;57790;51.356;-2.906;2023-05-10T07:16:06;101538.91;;;13.64;100.00
70370;BME280;57790;51.356;-2.906;2023-05-10T07:19:07;101529.59;;;13.60;100.00
70370;BME280;57790;51.356;-2.906;2023-05-10T07:22:08;101535.41;;;13.63;100.00
70370;BME280;57790;51.356;-2.906;2023-05-10T07:25:08;101541.75;;;13.62;100.00
70370;BME280;57790;51.356;-2.906;2023-05-10T07:28:09;101538.25;;;13.62;100.00
70370;BME280;57790;51.356;-2.906;2023-05-10T07:31:10;101544.41;;;13.62;100.00
70370;BME280;57790;51.356;-2.906;2023-05-10T07:34:10;101548.41;;;13.66;100.00
70370;BME280;57790;51.356;-2.906;2023-05-10T07:37:11;101552.44;;;13.79;100.00
70370;BME280;57790;51.356;-2.906;2023-05-10T07:40:11;101548.91;;;13.70;100.00
70370;BME280;57790;51.356;-2.906;2023-05-10T07:43:12;101551.75;;;13.68;100.00
70370;BME280;57790;51.356;-2.906;2023-05-10T07:46:12;101545.91;;;13.73;100.00
70370;BME280;57790;51.356;-2.906;2023-05-10T07:49:12;101544.41;;;13.70;100.00
70370;BME280;57790;51.356;-2.906;2023-05-10T07:52:13;101552.78;;;13.76;100.00
70370;BME280;57790;51.356;-2.906;2023-05-10T07:55:14;101550.25;;;13.74;100.00
70370;BME280;57790;51.356;-2.906;2023-05-10T07:58:14;101557.78;;;13.79;100.00
70370;BME280;57790;51.356;-2.906;2023-05-10T08:01:15;101564.78;;;13.80;100.00
70370;BME280;57790;51.356;-2.906;2023-05-10T08:04:15;101560.94;;;13.82;100.00
70370;BME280;57790;51.356;-2.906;2023-05-10T08:07:16;101555.59;;;13.82;100.00
70370;BME280;57790;51.356;-2.906;2023-05-10T08:10:16;101553.44;;;13.86;100.00
70370;BME280;57790;51.356;-2.906;2023-05-10T08:13:17;101556.97;;;13.94;100.00
70370;BME280;57790;51.356;-2.906;2023-05-10T08:16:17;101563.66;;;14.07;100.00
70370;BME280;57790;51.356;-2.906;2023-05-10T08:19:18;101561.97;;;13.97;100.00
70370;BME280;57790;51.356;-2.906;2023-05-10T08:22:19;101568.28;;;13.96;100.00
70370;BME280;57790;51.356;-2.906;2023-05-10T08:25:20;101572.28;;;14.00;100.00
70370;BME280;57790;51.356;-2.906;2023-05-10T08:28:20;101570.28;;;14.03;100.00
70370;BME280;57790;51.356;-2.906;2023-05-10T08:31:21;101579.81;;;14.05;100.00
70370;BME280;57790;51.356;-2.906;2023-05-10T08:34:21;101572.00;;;14.04;100.00
70370;BME280;57790;51.356;-2.906;2023-05-10T08:37:23;101572.00;;;14.04;100.00
70370;BME280;57790;51.356;-2.906;2023-05-10T08:40:24;101570.00;;;14.06;100.00
70370;BME280;57790;51.356;-2.906;2023-05-10T08:43:29;101571.31;;;14.10;100.00
70370;BME280;57790;51.356;-2.906;2023-05-10T08:46:30;101571.97;;;14.12;100.00
70370;BME280;57790;51.356;-2.906;2023-05-10T08:49:33;101573.66;;;14.13;100.00
70370;BME280;57790;51.356;-2.906;2023-05-10T08:52:38;101578.81;;;14.14;100.00
70370;BME280;57790;51.356;-2.906;2023-05-10T08:55:40;101574.66;;;14.20;100.00
70370;BME280;57790;51.356;-2.906;2023-05-10T08:58:42;101580.66;;;14.22;100.00
70370;BME280;57790;51.356;-2.906;2023-05-10T09:01:44;101573.50;;;14.22;100.00
70370;BME280;57790;51.356;-2.906;2023-05-10T09:04:45;101577.84;;;14.23;100.00
70370;BME280;57790;51.356;-2.906;2023-05-10T09:07:46;101581.00;;;14.27;100.00
70370;BME280;57790;51.356;-2.906;2023-05-10T09:10:47;101574.31;;;14.31;100.00
70370;BME280;57790;51.356;-2.906;2023-05-10T09:13:48;101571.00;;;14.37;100.00
70370;BME280;57790;51.356;-2.906;2023-05-10T09:16:50;101571.00;;;14.37;100.00
70370;BME280;57790;51.356;-2.906;2023-05-10T09:19:59;101573.50;;;14.39;100.00
70370;BME280;57790;51.356;-2.906;2023-05-10T09:22:59;101576.22;;;14.47;100.00
70370;BME280;57790;51.356;-2.906;2023-05-10T09:26:04;101579.34;;;14.42;100.00
70370;BME280;57790;51.356;-2.906;2023-05-10T09:29:05;101580.03;;;14.44;100.00
70370;BME280;57790;51.356;-2.906;2023-05-10T09:32:06;101581.56;;;14.47;100.00
70370;BME280;57790;51.356;-2.906;2023-05-10T09:35:10;101589.69;;;14.45;100.00
70370;BME280;57790;51.356;-2.906;2023-05-10T09:38:11;101588.22;;;14.51;100.00
70370;BME280;57790;51.356;-2.906;2023-05-10T09:41:24;101580.69;;;14.54;100.00
70370;BME280;57790;51.356;-2.906;2023-05-10T09:44:25;101580.69;;;14.54;100.00
70370;BME280;57790;51.356;-2.906;2023-05-10T09:47:26;101583.38;;;14.54;100.00
70370;BME280;57790;51.356;-2.906;2023-05-10T09:50:27;101581.53;;;14.63;100.00
70370;BME280;57790;51.356;-2.906;2023-05-10T09:53:27;101574.38;;;14.64;100.00
70370;BME280;57790;51.356;-2.906;2023-05-10T09:56:35;101586.19;;;14.77;100.00
70370;BME280;57790;51.356;-2.906;2023-05-10T09:59:42;101578.31;;;14.84;100.00
70370;BME280;57790;51.356;-2.906;2023-05-10T10:02:45;101581.03;;;14.76;100.00
70370;BME280;57790;51.356;-2.906;2023-05-10T10:05:47;101585.19;;;14.78;100.00
70370;BME280;57790;51.356;-2.906;2023-05-10T10:08:48;101576.34;;;14.78;100.00
70370;BME280;57790;51.356;-2.906;2023-05-10T10:11:49;101579.34;;;14.83;100.00
70370;BME280;57790;51.356;-2.906;2023-05-10T10:14:49;101568.31;;;14.86;100.00
70370;BME280;57790;51.356;-2.906;2023-05-10T10:17:51;101571.63;;;14.88;100.00
70370;BME280;57790;51.356;-2.906;2023-05-10T10:20:53;101575.84;;;14.91;100.00
70370;BME280;57790;51.356;-2.906;2023-05-10T10:23:54;101580.00;;;14.93;100.00
70370;BME280;57790;51.356;-2.906;2023-05-10T10:27:04;101589.44;;;15.12;100.00
70370;BME280;57790;51.356;-2.906;2023-05-10T10:30:23;101584.47;;;15.09;100.00
70370;BME280;57790;51.356;-2.906;2023-05-10T10:36:51;101587.63;;;15.04;100.00
70370;BME280;57790;51.356;-2.906;2023-05-10T10:39:51;101588.63;;;15.11;100.00
70370;BME280;57790;51.356;-2.906;2023-05-10T10:42:52;101583.25;;;15.20;100.00
70370;BME280;57790;51.356;-2.906;2023-05-10T10:46:12;101576.91;;;15.21;100.00
70370;BME280;57790;51.356;-2.906;2023-05-10T10:49:17;101581.06;;;15.23;100.00
70370;BME280;57790;51.356;-2.906;2023-05-10T10:52:34;101583.56;;;15.25;100.00
70370;BME280;57790;51.356;-2.906;2023-05-10T10:55:45;101580.19;;;15.31;100.00
70370;BME280;57790;51.356;-2.906;2023-05-10T10:58:49;101571.50;;;15.37;100.00
70370;BME280;57790;51.356;-2.906;2023-05-10T11:01:53;101573.66;;;15.33;100.00
70370;BME280;57790;51.356;-2.906;2023-05-10T11:04:54;101573.66;;;15.33;100.00
70370;BME280;57790;51.356;-2.906;2023-05-10T11:07:59;101567.16;;;15.36;100.00
70370;BME280;57790;51.356;-2.906;2023-05-10T11:14:07;101568.31;;;15.41;100.00
70370;BME280;57790;51.356;-2.906;2023-05-10T11:17:26;101572.44;;;15.52;100.00
70370;BME280;57790;51.356;-2.906;2023-05-10T11:20:28;101573.81;;;15.48;100.00
70370;BME280;57790;51.356;-2.906;2023-05-10T11:23:54;101580.94;;;15.56;100.00
70370;BME280;57790;51.356;-2.906;2023-05-10T11:26:57;101575.13;;;15.52;100.00
70370;BME280;57790;51.356;-2.906;2023-05-10T11:29:58;101579.44;;;15.61;100.00
70370;BME280;57790;51.356;-2.906;2023-05-10T11:32:58;101574.06;;;15.69;100.00
70370;BME280;57790;51.356;-2.906;2023-05-10T11:35:59;101569.72;;;15.68;100.00
70370;BME280;57790;51.356;-2.906;2023-05-10T11:38:59;101569.41;;;15.63;100.00
70370;BME280;57790;51.356;-2.906;2023-05-10T11:42:00;101570.34;;;15.79;100.00
70370;BME280;57790;51.356;-2.906;2023-05-10T11:45:01;101572.03;;;15.71;100.00
70370;BME280;57790;51.356;-2.906;2023-05-10T11:48:02;101575.06;;;15.68;100.00
70370;BME280;57790;51.356;-2.906;2023-05-10T11:51:02;101571.84;;;15.73;100.00
70370;BME280;57790;51.356;-2.906;2023-05-10T11:54:07;101574.88;;;15.70;100.00
70370;BME280;57790;51.356;-2.906;2023-05-10T11:57:11;101573.34;;;15.75;100.00
70370;BME280;57790;51.356;-2.906;2023-05-10T12:00:12;101573.47;;;15.82;100.00
70370;BME280;57790;51.356;-2.906;2023-05-10T12:03:13;101572.75;;;15.88;100.00
70370;BME280;57790;51.356;-2.906;2023-05-10T12:06:13;101571.75;;;15.89;100.00
70370;BME280;57790;51.356;-2.906;2023-05-10T12:09:14;101573.09;;;15.93;100.00
70370;BME280;57790;51.356;-2.906;2023-05-10T12:12:17;101575.22;;;15.98;100.00
70370;BME280;57790;51.356;-2.906;2023-05-10T12:15:23;101568.50;;;16.02;100.00
70370;BME280;57790;51.356;-2.906;2023-05-10T12:18:24;101566.59;;;16.11;100.00
70370;BME280;57790;51.356;-2.906;2023-05-10T12:21:26;101571.31;;;16.09;100.00
70370;BME280;57790;51.356;-2.906;2023-05-10T12:24:28;101574.16;;;16.07;100.00
70370;BME280;57790;51.356;-2.906;2023-05-10T12:27:31;101570.13;;;16.11;100.00
70370;BME280;57790;51.356;-2.906;2023-05-10T12:30:33;101576.75;;;16.15;100.00
70370;BME280;57790;51.356;-2.906;2023-05-10T12:33:41;101577.72;;;16.22;100.00
70370;BME280;57790;51.356;-2.906;2023-05-10T12:36:45;101567.59;;;16.32;100.00
70370;BME280;57790;51.356;-2.906;2023-05-10T12:39:45;101578.66;;;16.29;100.00
70370;BME280;57790;51.356;-2.906;2023-05-10T12:42:46;101578.47;;;16.31;100.00
70370;BME280;57790;51.356;-2.906;2023-05-10T12:45:47;101576.47;;;16.33;100.00
70370;BME280;57790;51.356;-2.906;2023-05-10T12:48:48;101571.59;;;16.36;100.00
70370;BME280;57790;51.356;-2.906;2023-05-10T12:51:54;101575.56;;;16.41;100.00
70370;BME280;57790;51.356;-2.906;2023-05-10T12:54:55;101563.78;;;16.50;100.00
70370;BME280;57790;51.356;-2.906;2023-05-10T12:57:55;101568.78;;;16.53;100.00
70370;BME280;57790;51.356;-2.906;2023-05-10T13:00:57;101564.34;;;16.60;100.00
70370;BME280;57790;51.356;-2.906;2023-05-10T13:03:57;101567.69;;;16.62;100.00
70370;BME280;57790;51.356;-2.906;2023-05-10T13:06:57;101561.66;;;16.60;100.00
70370;BME280;57790;51.356;-2.906;2023-05-10T13:09:58;101574.34;;;16.66;100.00
70370;BME280;57790;51.356;-2.906;2023-05-10T13:12:59;101578.03;;;16.65;100.00
70370;BME280;57790;51.356;-2.906;2023-05-10T13:15:59;101563.66;;;16.66;100.00
70370;BME280;57790;51.356;-2.906;2023-05-10T13:19:00;101576.50;;;16.71;100.00
70370;BME280;57790;51.356;-2.906;2023-05-10T13:22:00;101567.66;;;16.70;100.00
70370;BME280;57790;51.356;-2.906;2023-05-10T13:25:01;101567.66;;;16.70;100.00
70370;BME280;57790;51.356;-2.906;2023-05-10T13:28:02;101564.59;;;16.73;100.00
70370;BME280;57790;51.356;-2.906;2023-05-10T13:31:02;101572.63;;;16.73;100.00
70370;BME280;57790;51.356;-2.906;2023-05-10T13:34:03;101569.75;;;16.75;100.00
70370;BME280;57790;51.356;-2.906;2023-05-10T13:37:03;101581.50;;;16.74;100.00
70370;BME280;57790;51.356;-2.906;2023-05-10T13:40:04;101583.97;;;16.75;100.00
70370;BME280;57790;51.356;-2.906;2023-05-10T13:43:05;101582.06;;;16.84;100.00
70370;BME280;57790;51.356;-2.906;2023-05-10T13:46:05;101570.97;;;16.87;100.00
70370;BME280;57790;51.356;-2.906;2023-05-10T13:49:06;101567.84;;;16.83;100.00
70370;BME280;57790;51.356;-2.906;2023-05-10T13:52:06;101564.16;;;16.84;100.00
70370;BME280;57790;51.356;-2.906;2023-05-10T13:55:07;101567.09;;;16.89;100.00
70370;BME280;57790;51.356;-2.906;2023-05-10T13:58:08;101574.78;;;16.92;100.00
70370;BME280;57790;51.356;-2.906;2023-05-10T14:01:08;101565.75;;;16.93;100.00
70370;BME280;57790;51.356;-2.906;2023-05-10T14:04:09;101554.28;;;17.00;100.00
70370;BME280;57790;51.356;-2.906;2023-05-10T14:07:10;101560.91;;;17.04;100.00
70370;BME280;57790;51.356;-2.906;2023-05-10T14:10:11;101568.59;;;17.07;100.00
70370;BME280;57790;51.356;-2.906;2023-05-10T14:13:11;101561.28;;;17.01;100.00
70370;BME280;57790;51.356;-2.906;2023-05-10T14:16:12;101563.34;;;16.99;100.00
70370;BME280;57790;51.356;-2.906;2023-05-10T14:19:14;101563.16;;;17.00;100.00
70370;BME280;57790;51.356;-2.906;2023-05-10T14:22:15;101567.03;;;16.98;100.00
70370;BME280;57790;51.356;-2.906;2023-05-10T14:25:15;101554.09;;;17.01;100.00
70370;BME280;57790;51.356;-2.906;2023-05-10T14:28:16;101558.81;;;16.99;100.00
70370;BME280;57790;51.356;-2.906;2023-05-10T14:31:17;101564.44;;;17.04;100.00
70370;BME280;57790;51.356;-2.906;2023-05-10T14:34:20;101553.53;;;17.06;100.00
70370;BME280;57790;51.356;-2.906;2023-05-10T14:37:21;101558.88;;;17.06;100.00
70370;BME280;57790;51.356;-2.906;2023-05-10T14:40:21;101545.50;;;17.06;100.00
70370;BME280;57790;51.356;-2.906;2023-05-10T14:43:21;101551.53;;;17.08;100.00
70370;BME280;57790;51.356;-2.906;2023-05-10T14:46:22;101544.84;;;17.04;100.00
70370;BME280;57790;51.356;-2.906;2023-05-10T14:49:22;101548.66;;;17.09;100.00
70370;BME280;57790;51.356;-2.906;2023-05-10T14:52:25;101551.78;;;17.13;100.00
70370;BME280;57790;51.356;-2.906;2023-05-10T14:55:26;101547.06;;;17.15;100.00
70370;BME280;57790;51.356;-2.906;2023-05-10T14:58:26;101542.53;;;17.15;100.00
70370;BME280;57790;51.356;-2.906;2023-05-10T15:01:27;101543.75;;;17.13;100.00
70370;BME280;57790;51.356;-2.906;2023-05-10T15:04:27;101541.06;;;17.13;100.00
70370;BME280;57790;51.356;-2.906;2023-05-10T15:07:28;101541.97;;;17.20;100.00
70370;BME280;57790;51.356;-2.906;2023-05-10T15:10:28;101537.09;;;17.23;100.00
70370;BME280;57790;51.356;-2.906;2023-05-10T15:13:29;101534.94;;;17.19;100.00
70370;BME280;57790;51.356;-2.906;2023-05-10T15:16:30;101542.66;;;17.22;100.00
70370;BME280;57790;51.356;-2.906;2023-05-10T15:19:30;101534.22;;;17.25;100.00
70370;BME280;57790;51.356;-2.906;2023-05-10T15:22:30;101539.00;;;17.30;100.00
70370;BME280;57790;51.356;-2.906;2023-05-10T15:25:31;101542.78;;;17.35;100.00
70370;BME280;57790;51.356;-2.906;2023-05-10T15:28:35;101546.78;;;17.39;100.00
70370;BME280;57790;51.356;-2.906;2023-05-10T15:31:35;101539.19;;;17.43;100.00
70370;BME280;57790;51.356;-2.906;2023-05-10T15:34:36;101546.66;;;17.47;100.00
70370;BME280;57790;51.356;-2.906;2023-05-10T15:37:37;101546.31;;;17.50;100.00
70370;BME280;57790;51.356;-2.906;2023-05-10T15:40:37;101551.28;;;17.53;100.00
70370;BME280;57790;51.356;-2.906;2023-05-10T15:43:38;101544.50;;;17.58;100.00
70370;BME280;57790;51.356;-2.906;2023-05-10T15:46:38;101540.63;;;17.60;100.00
70370;BME280;57790;51.356;-2.906;2023-05-10T15:49:38;101540.72;;;17.67;100.00